首页
METAR-TAF:

METAR-TAF

机场 :

乔莫·肯雅塔国际机场

奈洛比, 肯尼亚

纬度: 01-19S, 经度: 036-55E, 海拔: 1624米

当前天气观测

该预报发布于58分钟前的04:30 UTC
风速4节,风向西南
温度 12°C
湿度 94%
气压 1024 hPa
能见度10公里或以上
少量云层高于1600英尺

METAR: HKJK 150430Z 22004KT 9999 FEW016 12/11 Q1024 NOSIG

时间: 08:28 (05:28 UTC)

预报

该预报发布于6小时和28分钟前的23:00 UTC
预报有效从15日的 00点(UTC)到 16日的 06点(UTC)
风速5节,风向西南
能见度10公里或以上
少量云层高于800英尺
多云层高于1600英尺
成为
从 15日的 08点(UTC)到 15日的 11点(UTC)
风速10节,风向
多云层高于2300英尺
成为
从 15日的 18点(UTC)到 15日的 21点(UTC)
风速10节,风向
多云层高于1800英尺

TAF: HKJK 142300Z 1500/1606 22005KT 9999 FEW008 BKN016 BECMG 1508/1511 18010KT BKN023 BECMG 1518/1521 10010KT BKN018

超过4000个机场的气象观测和天气预报(METAR&TAF报告)。

可查询的气象台以黄色和红色小点在地图上表示。

将鼠标移到小点上方,可查看气象台名称。

然后点击查看天气观测和预报。

如需切换地图:点击带黑十字的绿色按钮放大地图;点击带横线的绿色按钮缩小地图;或者点击绿色箭头查看邻近地区的地图。


METAR-TAF: